13:00
Airports
History
Links
Donate
Help keep this website running!
PayPal
Bitcoin
Information on this page is community maintained and may be outdated or inaccurate and is intended for reference only or PC simulator navigating.
Always use approved charts for navigating.
SDAI
AMERICANA
AMERICANA (SDAI)
Americana, São Paulo, Brazil
(U)
Lat/Lng:22° 45' 20.83" S / 47° 16' 10" W
-22.755786 / -47.269444
Elevation:2085'ft 636mMSL
ID / ICAO:SDAI
Runways:1
Longest:(12-30) 1,110.4m 3,643ft Asphalt
Distance To
Airport ID:
Nearby WeatherUpdated 07-23-17 12:00 GMT
Nearby weather at SBKP, Sao Paulo Viracopos located 19.4 nautical miles from SDAI
Altimeter: 30.30
Visibility: 5.0 statute miles
Wind: 8 knots (100°)
Temp: 16°c 61°f
Humidity: 82.4%

METAR: SBKP 231200Z 10008KT 8000 NSC 16/13 Q1026

(Powered by phpweather)
Runway 12 / 30
Dimensions:1110.4 x 18m 3643' x 59'ft
Surface:Asphalt
Edge Lights:Low intensity
Runway 12 [A]Runway 30 [B]
Heading:095°TH 275°TH
Lat:
Lng:
22° 45' 19.17"S
47° 16' 29.39"W
22° 45' 22.49"S
47° 15' 50.6"W
User Notes and Comments
Google Map
Nearby Airports
4 Rodrigues 4.5 NM
SIQK WSW 246°
(C) Amarais 12.5 NM
SDAM SE 124°
4 Limeira 13.9 NM
SDYM NW 319°
(C) Sao Paulo Viracopos 19.4 NM
SBKP (WX) SSE 153°
(C) Piracicaba 22.4 NM
SDPW W 277°
(C) Rio Claro 29.2 NM
SDRK NW 320°
(C) Araras 29.4 NM
SDAA NNW 348°
VFR Chart
Flight Planning at SkyVector.com